Time;durP1;ratioP1;P1;durP2;ratioP2;P2;SDS_P1;SDS_P2;PMS_P1;PMS_P2;Temp;Humidity;BMP_temperature;BMP_pressure;BME280_temperature;BME280_humidity;BME280_pressure;Samples;Min_cycle;Max_cycle;Signal;HPM_P1;HPM_P2
2023/03/18 00:00:23;;;;;;;5.35;2.28;;;12.10;99.90;;;-144.05;58.44;56857.34;5053670;28;20040;-78
2023/03/18 00:02:49;;;;;;;10.55;3.17;;;12.20;99.90;;;-144.05;58.50;56865.81;5054101;28;20476;-76
2023/03/18 00:05:15;;;;;;;5.05;2.38;;;12.20;99.90;;;-144.05;58.59;56887.06;5053739;28;20056;-79
2023/03/18 00:07:41;;;;;;;6.57;2.35;;;12.20;99.90;;;-144.05;58.77;56865.81;5053914;28;20053;-76
2023/03/18 00:10:10;;;;;;;6.85;2.33;;;12.20;99.90;;;-144.05;59.09;56872.19;5052045;28;20040;-78
2023/03/18 00:12:41;;;;;;;5.85;2.13;;;12.20;99.90;;;-144.05;59.09;56861.56;5052353;28;20029;-78
2023/03/18 00:15:12;;;;;;;10.52;3.28;;;12.10;99.90;;;-144.05;58.99;56880.69;5053854;28;20072;-78
2023/03/18 00:17:40;;;;;;;6.03;2.35;;;12.10;99.90;;;-144.05;59.32;56863.69;5051637;28;20103;-78
2023/03/18 00:20:09;;;;;;;7.70;2.72;;;12.10;99.90;;;-144.05;59.28;56859.47;5053558;28;20079;-79
2023/03/18 00:22:38;;;;;;;12.02;2.85;;;12.10;99.90;;;-144.05;59.12;56870.06;5051055;28;20016;-76
2023/03/18 00:25:09;;;;;;;6.97;2.25;;;12.10;99.90;;;-144.05;59.84;56887.06;5051595;28;20059;-78
2023/03/18 00:27:36;;;;;;;5.38;2.15;;;12.00;99.90;;;-144.05;59.43;56840.34;5052113;28;20040;-78
2023/03/18 00:30:06;;;;;;;6.20;2.00;;;12.00;99.90;;;-144.05;59.39;56870.06;5052279;28;20032;-78
2023/03/18 00:32:33;;;;;;;5.78;2.30;;;11.90;99.90;;;-144.05;59.72;56848.84;5052745;28;20111;-78
2023/03/18 00:35:00;;;;;;;9.45;3.17;;;11.90;99.90;;;-144.05;60.58;56857.34;5056894;28;20507;-78
2023/03/18 00:37:29;;;;;;;5.18;2.33;;;11.90;99.90;;;-144.05;60.49;56880.69;5055402;28;20083;-78
2023/03/18 00:40:05;;;;;;;8.18;2.65;;;11.90;99.90;;;-144.05;60.03;56850.97;5056322;28;20021;-77
2023/03/18 00:42:46;;;;;;;7.13;2.47;;;11.80;99.90;;;-144.05;60.46;56870.06;5056234;28;20117;-78
2023/03/18 00:45:15;;;;;;;6.93;2.22;;;11.80;99.90;;;-144.05;60.70;56855.22;5057635;28;20020;-79
2023/03/18 00:47:47;;;;;;;6.13;2.85;;;11.80;99.90;;;-144.05;60.58;56855.22;5055192;28;20464;-79
2023/03/18 00:50:13;;;;;;;9.18;2.92;;;11.70;99.90;;;-144.05;60.73;56855.22;5054962;28;20051;-79
2023/03/18 00:52:39;;;;;;;8.60;2.45;;;11.80;99.90;;;-144.05;61.06;56857.34;5056343;28;20123;-77
2023/03/18 00:55:07;;;;;;;4.70;2.35;;;11.70;99.90;;;-144.05;61.08;56870.06;5056877;28;20053;-77
2023/03/18 00:57:33;;;;;;;6.80;2.30;;;11.80;99.90;;;-144.05;60.44;56870.06;5057207;28;20048;-76
2023/03/18 00:59:59;;;;;;;4.85;1.75;;;11.80;99.90;;;-144.05;60.56;56863.69;5054608;28;20029;-79
2023/03/18 01:02:27;;;;;;;6.75;2.70;;;11.80;99.90;;;-144.05;60.87;56867.94;5056576;28;20029;-76
2023/03/18 01:04:53;;;;;;;7.18;2.10;;;11.70;99.90;;;-144.05;61.13;56878.56;5055225;28;20036;-78
2023/03/18 01:07:19;;;;;;;8.25;2.80;;;11.70;99.90;;;-144.05;61.54;56865.81;5057140;28;20025;-76
2023/03/18 01:09:45;;;;;;;6.72;2.80;;;11.70;99.90;;;-144.05;61.24;56867.94;5055894;28;20037;-77
2023/03/18 01:12:11;;;;;;;5.85;2.05;;;11.70;99.90;;;-144.05;61.26;56831.84;5055684;28;20131;-76
2023/03/18 01:14:39;;;;;;;7.60;2.33;;;11.70;99.90;;;-144.05;61.06;56848.84;5054922;28;20029;-78
2023/03/18 01:17:07;;;;;;;9.20;2.72;;;11.70;99.90;;;-144.05;61.96;56846.72;5057195;28;20051;-75
2023/03/18 01:19:36;;;;;;;10.77;2.72;;;11.60;99.90;;;-144.05;61.97;56891.31;5056133;28;20468;-76
2023/03/18 01:22:03;;;;;;;6.45;2.38;;;11.70;99.90;;;-144.05;61.72;56887.06;5056904;28;20021;-78
2023/03/18 01:24:29;;;;;;;8.88;2.90;;;11.60;99.90;;;-144.05;61.70;56850.97;5057148;28;20032;-78
2023/03/18 01:26:55;;;;;;;8.07;2.60;;;11.60;99.90;;;-144.05;62.03;56861.56;5057845;28;20028;-78
2023/03/18 01:29:22;;;;;;;6.05;2.53;;;11.50;99.90;;;-144.05;62.28;56855.22;5055635;28;20033;-75
2023/03/18 01:31:50;;;;;;;8.40;2.65;;;11.40;99.90;;;-144.05;62.07;56861.56;5055339;28;20055;-75
2023/03/18 01:34:17;;;;;;;8.48;2.80;;;11.40;99.90;;;-144.05;63.15;56863.69;5056880;28;20582;-77
2023/03/18 01:36:42;;;;;;;7.55;2.53;;;11.30;99.90;;;-144.05;63.47;56861.56;5056133;28;20021;-78
2023/03/18 01:39:09;;;;;;;7.75;2.15;;;11.30;99.90;;;-144.05;63.29;56874.31;5053375;28;20032;-77
2023/03/18 01:41:35;;;;;;;6.68;2.53;;;11.30;99.90;;;-144.05;63.42;56857.34;5054312;28;20055;-78
2023/03/18 01:44:03;;;;;;;5.90;2.90;;;11.30;99.90;;;-144.05;63.55;56882.81;5055189;28;20093;-76
2023/03/18 01:46:45;;;;;;;6.72;2.65;;;11.30;99.90;;;-144.05;63.75;56857.34;5054470;28;20432;-77
2023/03/18 01:49:35;;;;;;;11.85;2.80;;;11.30;99.90;;;-144.05;63.94;56882.81;5055023;28;20080;-78
2023/03/18 01:52:14;;;;;;;6.38;2.45;;;11.30;99.90;;;-144.05;63.52;56882.81;5055245;28;20036;-76
2023/03/18 01:54:51;;;;;;;11.45;2.58;;;11.40;99.90;;;-144.05;64.13;56872.19;5053921;28;20120;-78
2023/03/18 01:57:20;;;;;;;8.13;2.40;;;11.40;99.90;;;-144.05;64.08;56857.34;5055266;28;20124;-78
2023/03/18 01:59:51;;;;;;;7.20;2.40;;;11.50;99.90;;;-144.05;64.28;56870.06;5055393;28;20458;-76
2023/03/18 02:02:19;;;;;;;6.47;2.60;;;11.50;99.90;;;-144.05;63.89;56867.94;5054634;28;20025;-79
2023/03/18 02:05:07;;;;;;;8.20;2.83;;;11.60;99.90;;;-144.05;63.42;56857.34;5055507;28;20400;-79
2023/03/18 02:07:35;;;;;;;6.25;2.22;;;11.60;99.90;;;-144.05;63.00;56874.31;5055870;28;20582;-76
2023/03/18 02:10:24;;;;;;;6.25;2.03;;;11.70;99.90;;;-144.05;63.09;56853.09;5055169;28;20021;-77
2023/03/18 02:13:02;;;;;;;8.13;2.42;;;11.60;99.90;;;-144.05;63.31;56876.44;5055463;28;20116;-78
2023/03/18 02:15:31;;;;;;;7.97;2.65;;;11.70;99.90;;;-144.05;63.26;56855.22;5054667;28;20056;-76
2023/03/18 02:18:10;;;;;;;5.78;2.75;;;11.70;99.90;;;-144.05;63.68;56853.09;5055653;28;20036;-78
2023/03/18 02:20:55;;;;;;;7.20;2.50;;;11.70;99.90;;;-144.05;63.48;56865.81;5056439;28;20057;-78
2023/03/18 02:24:02;;;;;;;4.10;2.63;;;11.70;99.90;;;-144.05;63.94;56882.81;5055754;28;20028;-78
2023/03/18 02:27:15;;;;;;;4.07;2.50;;;11.70;99.90;;;-144.05;64.03;56878.56;5053149;28;20025;-76
2023/03/18 02:29:44;;;;;;;5.38;2.10;;;11.80;99.90;;;-144.05;63.94;56857.34;5055089;28;20033;-78
2023/03/18 02:32:13;;;;;;;5.15;2.35;;;11.90;99.90;;;-144.05;63.67;56874.31;5055033;28;20029;-78
2023/03/18 02:34:42;;;;;;;7.07;2.65;;;11.90;99.90;;;-144.05;64.46;56859.47;5054929;28;20036;-78
2023/03/18 02:37:08;;;;;;;8.95;2.38;;;11.90;99.90;;;-144.05;64.52;56861.56;5054148;28;20066;-78
2023/03/18 02:39:34;;;;;;;6.18;2.60;;;11.90;99.90;;;-144.05;64.52;56853.09;5055431;28;20021;-78
2023/03/18 02:42:00;;;;;;;6.75;2.15;;;11.90;99.90;;;-144.05;64.77;56880.69;5053875;28;20108;-77
2023/03/18 02:44:27;;;;;;;7.40;2.30;;;11.90;99.90;;;-144.05;64.35;56846.72;5054974;28;20101;-78
2023/03/18 02:47:13;;;;;;;7.35;2.83;;;11.90;99.90;;;-144.05;64.29;56870.06;5054627;28;20107;-79
2023/03/18 02:49:38;;;;;;;7.57;2.30;;;11.80;99.90;;;-144.05;64.60;56867.94;5053244;28;20040;-77
2023/03/18 02:52:05;;;;;;;6.75;2.40;;;11.80;99.90;;;-144.05;65.14;56859.47;5053947;28;20033;-78
2023/03/18 02:54:32;;;;;;;6.32;2.80;;;11.80;99.90;;;-144.05;64.68;56853.09;5053506;28;20423;-77
2023/03/18 02:56:59;;;;;;;8.68;2.80;;;11.70;99.90;;;-144.05;65.06;56857.34;5051913;28;20091;-78
2023/03/18 02:59:25;;;;;;;5.85;2.13;;;11.60;99.90;;;-144.05;65.28;56853.09;5052831;28;20029;-78
2023/03/18 03:01:53;;;;;;;7.50;2.85;;;11.60;99.90;;;-144.05;65.44;56874.31;5052800;28;20417;-77
2023/03/18 03:04:24;;;;;;;7.65;2.60;;;11.50;99.90;;;-144.05;66.31;56874.31;5052895;28;20033;-76
2023/03/18 03:06:53;;;;;;;6.32;2.33;;;11.40;99.90;;;-144.05;66.39;56880.69;5052782;28;20036;-79
2023/03/18 03:09:20;;;;;;;6.45;2.67;;;11.40;99.90;;;-144.05;66.33;56853.09;5053544;28;20480;-77
2023/03/18 03:11:47;;;;;;;9.43;2.63;;;11.20;99.90;;;-144.05;66.71;56848.84;5053286;28;20033;-79
2023/03/18 03:14:15;;;;;;;5.25;2.80;;;11.20;99.90;;;-144.05;68.03;56865.81;5053704;28;20040;-76
2023/03/18 03:16:42;;;;;;;12.55;2.95;;;11.10;99.90;;;-144.05;68.16;56870.06;5053865;28;20103;-76
2023/03/18 03:19:08;;;;;;;5.03;2.60;;;11.00;99.90;;;-144.05;68.79;56891.31;5054039;28;20025;-76
2023/03/18 03:21:35;;;;;;;8.05;2.78;;;11.00;99.90;;;-144.05;68.76;56874.31;5053371;28;20122;-78
2023/03/18 03:24:05;;;;;;;6.80;2.75;;;10.90;99.90;;;-144.05;69.05;56867.94;5054330;28;20025;-78
2023/03/18 03:26:32;;;;;;;8.63;3.45;;;10.90;99.90;;;-144.05;69.48;56857.34;5053599;28;20461;-77
2023/03/18 03:28:59;;;;;;;6.85;3.65;;;10.80;99.90;;;-144.05;69.58;56914.69;5052175;28;20024;-78
2023/03/18 03:31:26;;;;;;;9.88;3.70;;;10.80;99.90;;;-144.05;70.46;56884.94;5054102;28;20025;-77
2023/03/18 03:33:52;;;;;;;13.70;3.75;;;10.80;99.90;;;-144.05;70.37;56850.97;5054078;28;20112;-78
2023/03/18 03:36:18;;;;;;;5.63;3.30;;;10.80;99.90;;;-144.05;70.72;56876.44;5052574;28;20056;-78
2023/03/18 03:38:45;;;;;;;9.20;2.92;;;10.80;99.90;;;-144.05;70.97;56857.34;5053901;28;20025;-79
2023/03/18 03:41:12;;;;;;;5.82;2.55;;;10.90;99.90;;;-144.05;70.50;56876.44;5054130;28;20063;-78
2023/03/18 03:43:40;;;;;;;7.05;2.97;;;10.80;99.90;;;-144.05;70.61;56872.19;5053855;28;20021;-79
2023/03/18 03:46:08;;;;;;;9.57;3.10;;;10.80;99.90;;;-144.05;71.05;56848.84;5053924;28;20033;-77
2023/03/18 03:48:35;;;;;;;7.55;3.63;;;10.80;99.90;;;-144.05;71.40;56840.34;5053693;28;20112;-77
2023/03/18 03:51:02;;;;;;;4.80;2.97;;;10.90;99.90;;;-144.05;70.90;56882.81;5053844;28;20040;-79
2023/03/18 03:53:27;;;;;;;11.90;3.33;;;10.80;99.90;;;-144.05;72.14;56861.56;5054153;28;20385;-77
2023/03/18 03:55:54;;;;;;;8.65;3.13;;;10.80;99.90;;;-144.05;72.27;56865.81;5053641;28;20037;-78
2023/03/18 03:58:21;;;;;;;6.20;3.13;;;10.90;99.90;;;-144.05;72.17;56840.34;5053983;28;20096;-78
2023/03/18 04:00:47;;;;;;;10.63;3.70;;;10.70;99.90;;;-144.05;73.29;56867.94;5056467;28;20549;-79
2023/03/18 04:03:13;;;;;;;7.25;3.17;;;10.70;99.90;;;-144.05;72.71;56876.44;5054741;28;20036;-78
2023/03/18 04:05:40;;;;;;;7.55;3.38;;;10.70;99.90;;;-144.05;72.58;56874.31;5054236;28;20060;-76
2023/03/18 04:08:07;;;;;;;7.53;3.50;;;10.60;99.90;;;-144.05;73.58;56895.56;5053416;28;20443;-78
2023/03/18 04:10:35;;;;;;;9.95;4.00;;;10.60;99.90;;;-144.05;74.21;56872.19;5051522;28;20036;-78
2023/03/18 04:13:03;;;;;;;11.65;3.58;;;10.60;99.90;;;-144.05;74.67;56865.81;5050596;28;20029;-78
2023/03/18 04:15:28;;;;;;;12.02;3.78;;;10.60;99.90;;;-144.05;73.75;56870.06;5052386;28;20029;-78
2023/03/18 04:17:54;;;;;;;4.72;3.17;;;10.60;99.90;;;-144.05;73.37;56863.69;5053068;28;20218;-78
2023/03/18 04:20:21;;;;;;;9.35;3.85;;;10.50;99.90;;;-144.05;73.52;56878.56;5051423;28;20067;-78
2023/03/18 04:22:47;;;;;;;7.10;3.70;;;10.60;99.90;;;-144.05;74.03;56859.47;5053546;28;20029;-78
2023/03/18 04:25:13;;;;;;;7.22;3.58;;;10.40;99.90;;;-144.05;74.44;56861.56;5053333;28;20131;-76
2023/03/18 04:27:40;;;;;;;8.82;4.00;;;10.30;99.90;;;-144.05;74.63;56867.94;5053163;28;20048;-77
2023/03/18 04:30:10;;;;;;;10.00;3.97;;;10.30;99.90;;;-144.05;74.77;56874.31;5053086;28;20036;-78
2023/03/18 04:32:36;;;;;;;9.93;4.15;;;10.30;99.90;;;-144.05;74.86;56870.06;5053456;28;20508;-79
2023/03/18 04:35:02;;;;;;;9.38;4.10;;;10.30;99.90;;;-144.05;75.62;56891.31;5052133;28;20060;-77
2023/03/18 04:37:28;;;;;;;9.88;4.13;;;10.20;99.90;;;-144.05;76.59;56867.94;5053226;28;20074;-77
2023/03/18 04:39:54;;;;;;;8.77;4.20;;;10.30;99.90;;;-144.05;76.79;56872.19;5053173;28;20033;-78
2023/03/18 04:42:20;;;;;;;25.25;5.00;;;10.30;99.90;;;-144.05;76.25;56882.81;5052927;28;20025;-79
2023/03/18 04:44:46;;;;;;;9.75;4.55;;;10.30;99.90;;;-144.05;76.81;56863.69;5053010;28;20078;-80
2023/03/18 04:47:12;;;;;;;9.85;5.40;;;10.40;99.90;;;-144.05;76.71;56872.19;5053104;28;20079;-78
2023/03/18 04:49:39;;;;;;;9.75;4.63;;;10.40;99.90;;;-144.05;76.56;56863.69;5053079;28;20021;-77
2023/03/18 04:52:06;;;;;;;10.95;4.68;;;10.40;99.90;;;-144.05;76.15;56867.94;5053029;28;20028;-78
2023/03/18 04:54:33;;;;;;;8.38;5.18;;;10.40;99.90;;;-144.05;76.70;56889.19;5053680;28;20054;-76
2023/03/18 04:59:26;;;;;;;8.05;4.60;;;10.40;99.90;;;-144.05;76.14;56863.69;5034007;28;20103;-81
2023/03/18 05:01:52;;;;;;;9.73;4.65;;;10.30;99.90;;;-144.05;76.68;56878.56;5036184;28;20030;-80
2023/03/18 05:04:18;;;;;;;9.57;6.32;;;10.40;99.90;;;-144.05;76.72;56880.69;5035062;28;20029;-79
2023/03/18 05:06:45;;;;;;;10.38;5.00;;;10.50;99.90;;;-144.05;77.17;56882.81;5035135;28;20508;-79
2023/03/18 05:09:12;;;;;;;10.50;5.85;;;10.40;99.90;;;-144.05;76.99;56865.81;5017784;28;20488;-80
2023/03/18 05:11:38;;;;;;;9.30;4.90;;;10.50;99.90;;;-144.05;76.66;56870.06;5017654;28;20061;-80
2023/03/18 05:14:04;;;;;;;12.57;5.75;;;10.50;99.90;;;-144.05;77.06;56859.47;5017374;28;20476;-80
2023/03/18 05:16:29;;;;;;;6.85;5.13;;;10.50;99.90;;;-144.05;76.60;56876.44;5035679;28;20033;-80
2023/03/18 05:18:55;;;;;;;10.80;5.28;;;10.70;99.90;;;-144.05;76.03;56880.69;5034875;28;20473;-80
2023/03/18 05:21:21;;;;;;;10.07;4.78;;;10.80;99.90;;;-144.05;75.99;56887.06;5038006;28;20080;-80
2023/03/18 05:23:47;;;;;;;9.82;5.15;;;10.80;99.90;;;-144.05;75.57;56876.44;5039143;28;20025;-80
2023/03/18 05:26:13;;;;;;;12.88;5.07;;;10.80;99.90;;;-144.05;75.30;56872.19;5039147;28;20060;-80
2023/03/18 05:28:39;;;;;;;8.40;5.03;;;10.80;99.90;;;-144.05;75.04;56889.19;5020697;28;20087;-80
2023/03/18 05:31:06;;;;;;;8.43;5.13;;;10.90;99.90;;;-144.05;74.52;56872.19;5043879;28;20036;-80
2023/03/18 05:33:32;;;;;;;8.82;4.65;;;10.90;99.90;;;-144.05;74.29;56865.81;5025769;28;20072;-80
2023/03/18 05:35:58;;;;;;;9.15;4.50;;;10.90;99.90;;;-144.05;74.33;56874.31;5043158;28;20025;-81
2023/03/18 05:38:24;;;;;;;9.80;4.95;;;11.00;99.90;;;-144.05;74.19;56863.69;5043208;28;20133;-80
2023/03/18 05:40:50;;;;;;;9.43;5.35;;;11.00;99.90;;;-144.05;73.87;56861.56;5041595;28;20508;-79
2023/03/18 05:43:16;;;;;;;14.82;6.10;;;11.00;99.90;;;-144.05;73.96;56863.69;5042781;28;20029;-80
2023/03/18 05:45:42;;;;;;;7.88;4.45;;;11.00;99.90;;;-144.05;73.90;56870.06;5025941;28;20480;-80
2023/03/18 05:48:10;;;;;;;8.35;4.47;;;11.00;99.90;;;-144.05;73.31;56844.59;5042216;28;20491;-81
2023/03/18 05:50:41;;;;;;;12.40;4.82;;;11.10;99.90;;;-144.05;72.96;56897.69;5044619;28;20029;-80
2023/03/18 05:53:08;;;;;;;9.90;4.72;;;11.10;99.90;;;-144.05;73.26;56872.19;5043682;28;20449;-80
2023/03/18 05:55:35;;;;;;;7.55;4.47;;;11.10;99.90;;;-144.05;73.25;56867.94;5044168;28;20026;-80
2023/03/18 05:58:02;;;;;;;11.35;5.68;;;11.20;99.90;;;-144.05;72.71;56884.94;5037490;28;20044;-79
2023/03/18 06:00:29;;;;;;;9.65;4.40;;;11.20;99.90;;;-144.05;72.59;56861.56;5018406;28;20022;-79
2023/03/18 06:02:58;;;;;;;8.98;4.85;;;11.20;99.90;;;-144.05;72.29;56872.19;5019979;28;20100;-79
2023/03/18 06:05:27;;;;;;;8.55;4.60;;;11.20;99.90;;;-144.05;72.53;56874.31;5037702;28;20036;-79
2023/03/18 06:07:53;;;;;;;9.13;4.78;;;11.30;99.90;;;-144.05;71.84;56887.06;5037015;28;20029;-80
2023/03/18 06:10:22;;;;;;;9.68;5.20;;;11.30;99.90;;;-144.05;71.99;56893.44;5035839;28;20029;-79
2023/03/18 06:12:51;;;;;;;8.55;4.75;;;11.30;99.90;;;-144.05;71.39;56889.19;5035687;28;20031;-79
2023/03/18 06:15:17;;;;;;;9.25;4.05;;;11.30;99.90;;;-144.05;71.49;56874.31;5035987;28;20104;-80
2023/03/18 06:17:44;;;;;;;12.70;4.68;;;11.30;99.90;;;-144.05;71.85;56850.97;5035663;28;20108;-78
2023/03/18 06:20:13;;;;;;;8.80;4.47;;;11.40;99.90;;;-144.05;71.14;56891.31;5035273;28;20113;-79
2023/03/18 06:22:39;;;;;;;6.88;4.25;;;11.40;99.90;;;-144.05;71.16;56882.81;5017011;28;20026;-80
2023/03/18 06:25:07;;;;;;;8.88;4.40;;;11.40;99.90;;;-144.05;70.71;56884.94;5035340;28;20025;-79
2023/03/18 06:27:34;;;;;;;7.78;4.28;;;11.40;99.90;;;-144.05;70.97;56870.06;5035154;28;20029;-79
2023/03/18 06:30:03;;;;;;;9.38;4.43;;;11.40;99.90;;;-144.05;70.39;56859.47;5016174;28;20389;-78
2023/03/18 06:32:32;;;;;;;9.95;4.47;;;11.40;99.90;;;-144.05;70.34;56857.34;5017583;28;20033;-77
2023/03/18 06:34:59;;;;;;;10.00;4.65;;;11.40;99.90;;;-144.05;70.31;56872.19;5036225;28;20022;-79
2023/03/18 06:37:25;;;;;;;9.63;4.88;;;11.40;99.90;;;-144.05;69.51;56878.56;5036365;28;20084;-79
2023/03/18 06:39:51;;;;;;;9.38;5.15;;;11.40;99.90;;;-144.05;69.67;56870.06;5017876;28;20029;-79
2023/03/18 06:42:17;;;;;;;9.38;5.18;;;11.50;99.90;;;-144.05;69.87;56891.31;5036841;28;20499;-79
2023/03/18 06:44:49;;;;;;;9.75;4.22;;;11.50;99.90;;;-144.05;69.56;56857.34;5034895;28;20099;-78
2023/03/18 06:47:18;;;;;;;8.00;4.40;;;11.50;99.90;;;-144.05;69.94;56878.56;5034195;28;20049;-79
2023/03/18 06:49:44;;;;;;;9.93;4.25;;;11.50;99.90;;;-144.05;70.18;56872.19;5016450;28;20438;-78
2023/03/18 06:52:12;;;;;;;11.35;4.72;;;11.40;99.90;;;-144.05;69.70;56863.69;5033663;28;20029;-79
2023/03/18 06:54:38;;;;;;;10.00;4.35;;;11.50;99.90;;;-144.05;69.08;56857.34;5035835;28;20107;-77
2023/03/18 06:57:05;;;;;;;7.75;4.43;;;11.60;99.90;;;-144.05;69.03;56882.81;5035709;28;20452;-79
2023/03/18 06:59:31;;;;;;;8.45;4.22;;;11.50;99.90;;;-144.05;69.06;56867.94;5017408;28;20061;-79
2023/03/18 07:01:57;;;;;;;8.30;4.50;;;11.60;99.90;;;-144.05;68.77;56878.56;5034771;28;20037;-77
2023/03/18 07:04:22;;;;;;;9.77;4.20;;;11.50;99.90;;;-144.05;68.60;56861.56;5036740;28;20052;-77
2023/03/18 07:06:49;;;;;;;8.63;4.10;;;11.50;99.90;;;-144.05;68.22;56848.84;5035616;28;20021;-76
2023/03/18 07:09:15;;;;;;;9.82;4.43;;;11.60;99.90;;;-144.05;68.65;56861.56;5016050;28;20040;-78
2023/03/18 07:11:43;;;;;;;8.05;4.80;;;11.60;99.90;;;-144.05;68.35;56874.31;5017155;28;20036;-78
2023/03/18 07:14:08;;;;;;;7.72;4.38;;;11.60;99.90;;;-144.05;68.66;56874.31;5039527;28;20025;-77
2023/03/18 07:16:34;;;;;;;8.52;4.45;;;11.60;99.90;;;-144.05;68.20;56872.19;5043311;28;20052;-78
2023/03/18 07:19:00;;;;;;;6.55;4.03;;;11.70;99.90;;;-144.05;67.88;56878.56;5036294;28;20121;-77
2023/03/18 07:21:26;;;;;;;10.20;4.53;;;11.70;99.90;;;-144.05;67.92;56882.81;5037516;28;20056;-79
2023/03/18 07:23:54;;;;;;;7.45;4.07;;;11.70;99.90;;;-144.05;68.08;56853.09;5022134;28;20021;-79
2023/03/18 07:26:20;;;;;;;8.60;4.63;;;11.80;99.90;;;-144.05;67.95;56889.19;5034608;28;20378;-77
2023/03/18 07:28:47;;;;;;;8.02;4.20;;;11.80;99.90;;;-144.05;68.47;56870.06;5016919;28;20033;-78
2023/03/18 07:31:13;;;;;;;6.20;3.88;;;11.90;99.90;;;-144.05;67.30;56884.94;5015675;28;20026;-79
2023/03/18 07:33:39;;;;;;;9.55;3.83;;;11.90;99.90;;;-144.05;67.10;56850.97;5015152;28;20052;-79
2023/03/18 07:36:06;;;;;;;6.25;4.13;;;11.90;99.90;;;-144.05;66.65;56870.06;5032999;28;20056;-78
2023/03/18 07:38:32;;;;;;;9.98;4.85;;;12.00;99.90;;;-144.05;66.61;56863.69;5032929;28;20435;-76
2023/03/18 07:40:58;;;;;;;11.23;4.28;;;12.00;99.90;;;-144.05;66.26;56863.69;5032346;28;20022;-77
2023/03/18 07:43:25;;;;;;;8.65;4.18;;;12.10;99.90;;;-144.05;65.68;56857.34;5015669;28;20037;-79
2023/03/18 07:45:51;;;;;;;7.60;3.85;;;12.20;99.90;;;-144.05;64.85;56870.06;5032480;28;20029;-78
2023/03/18 07:48:17;;;;;;;10.05;4.50;;;12.30;99.90;;;-144.05;65.11;56876.44;5031745;28;20503;-75
2023/03/18 07:50:42;;;;;;;10.20;4.15;;;12.40;99.90;;;-144.05;64.09;56863.69;5034995;28;20033;-78
2023/03/18 07:53:09;;;;;;;7.78;4.18;;;12.50;99.90;;;-144.05;63.40;56870.06;5034546;28;20034;-79
2023/03/18 07:55:35;;;;;;;8.45;3.95;;;12.60;99.90;;;-144.05;62.52;56874.31;5034166;28;20026;-77
2023/03/18 07:58:01;;;;;;;9.32;3.90;;;12.70;99.90;;;-144.05;62.33;56872.19;5015446;28;20083;-79
2023/03/18 08:00:28;;;;;;;7.97;3.75;;;12.90;99.90;;;-144.05;62.04;56874.31;5035196;28;20037;-78
2023/03/18 08:02:54;;;;;;;6.72;3.80;;;13.00;99.90;;;-144.05;61.01;56861.56;5018876;28;20029;-79
2023/03/18 08:05:20;;;;;;;6.65;3.85;;;13.30;99.90;;;-144.05;60.17;56859.47;5036174;28;20025;-79
2023/03/18 08:07:47;;;;;;;5.88;3.00;;;13.50;99.90;;;-144.05;58.68;56836.09;5038506;28;20036;-79
2023/03/18 08:10:14;;;;;;;6.03;3.17;;;14.00;99.90;;;-144.05;57.00;56865.81;5017721;28;20033;-78
2023/03/18 08:12:41;;;;;;;6.68;3.45;;;14.30;99.90;;;-144.05;55.99;56880.69;5035143;28;20026;-79
2023/03/18 08:15:08;;;;;;;7.50;3.15;;;14.60;99.90;;;-144.05;54.78;56853.09;5034521;28;20041;-79
2023/03/18 08:17:35;;;;;;;7.40;3.03;;;14.90;99.90;;;-144.05;53.84;56855.22;5035705;28;20022;-80
2023/03/18 08:20:01;;;;;;;10.57;2.85;;;15.20;99.90;;;-144.05;52.41;56861.56;5034197;28;20022;-79
2023/03/18 08:22:27;;;;;;;6.93;2.92;;;15.40;99.90;;;-144.05;51.94;56870.06;5038330;28;20033;-80
2023/03/18 08:24:52;;;;;;;7.32;3.10;;;15.70;99.90;;;-144.05;51.61;56878.56;5021571;28;20044;-77
2023/03/18 08:27:18;;;;;;;5.45;2.53;;;15.60;99.90;;;-144.05;51.32;56876.44;5036102;28;20030;-80
2023/03/18 08:29:44;;;;;;;6.35;2.95;;;15.50;99.90;;;-144.05;51.74;56895.56;5035943;28;20414;-79
2023/03/18 08:32:11;;;;;;;4.35;2.17;;;15.40;99.90;;;-144.05;52.50;56874.31;5037724;28;20040;-80
2023/03/18 08:34:37;;;;;;;5.28;2.80;;;15.00;99.90;;;-144.05;53.74;56872.19;5036066;28;20492;-79
2023/03/18 08:37:03;;;;;;;3.38;1.70;;;14.60;99.90;;;-144.05;53.80;56897.69;5017771;28;20436;-80
2023/03/18 08:39:29;;;;;;;6.65;2.42;;;14.20;99.90;;;-144.05;55.41;56848.84;5036766;28;20458;-78
2023/03/18 08:41:55;;;;;;;2.83;2.03;;;14.00;99.90;;;-144.05;56.38;56855.22;5036508;28;20029;-78
2023/03/18 08:44:22;;;;;;;4.68;2.40;;;13.80;99.90;;;-144.05;57.19;56887.06;5036706;28;20025;-78
2023/03/18 08:46:48;;;;;;;3.80;2.17;;;13.60;99.90;;;-144.05;58.46;56887.06;5018402;28;20033;-78
2023/03/18 08:49:14;;;;;;;4.50;2.63;;;13.50;99.90;;;-144.05;58.12;56910.44;5035247;28;20036;-78
2023/03/18 08:51:40;;;;;;;6.45;2.65;;;13.50;99.90;;;-144.05;58.01;56853.09;5035214;28;20025;-80
2023/03/18 08:54:07;;;;;;;5.97;2.47;;;13.70;99.90;;;-144.05;57.25;56874.31;5035638;28;20484;-78
2023/03/18 08:56:33;;;;;;;7.47;3.08;;;13.70;99.90;;;-144.05;57.04;56861.56;5039443;28;20396;-80
2023/03/18 08:58:59;;;;;;;7.72;2.90;;;13.70;99.90;;;-144.05;57.42;56880.69;5019387;28;20040;-80
2023/03/18 09:01:25;;;;;;;9.07;3.40;;;13.80;99.90;;;-144.05;57.65;56865.81;5021711;28;20029;-80
2023/03/18 09:03:51;;;;;;;4.47;2.70;;;13.70;99.90;;;-144.05;57.85;56872.19;5020876;28;20026;-80
2023/03/18 09:06:17;;;;;;;8.45;3.00;;;13.70;99.90;;;-144.05;57.73;56870.06;5021262;28;20032;-80
2023/03/18 09:08:43;;;;;;;8.93;3.83;;;13.80;99.90;;;-144.05;57.31;56882.81;5039559;28;20109;-81
2023/03/18 09:11:10;;;;;;;8.43;3.50;;;13.80;99.90;;;-144.05;56.62;56882.81;5039648;28;20036;-79
2023/03/18 09:13:37;;;;;;;6.72;3.20;;;14.00;99.90;;;-144.05;56.28;56876.44;5020317;28;20092;-78
2023/03/18 09:16:04;;;;;;;6.30;2.90;;;14.20;99.90;;;-144.05;55.84;56846.72;5036134;28;20029;-77
2023/03/18 09:18:31;;;;;;;5.95;4.30;;;14.20;99.90;;;-144.05;56.10;56887.06;5020575;28;20057;-78
2023/03/18 09:20:57;;;;;;;6.00;3.35;;;14.10;99.90;;;-144.05;56.33;56867.94;5039751;28;20029;-75
2023/03/18 09:23:25;;;;;;;4.65;3.38;;;14.10;99.90;;;-144.05;55.99;56889.19;5036773;28;20429;-79
2023/03/18 09:25:50;;;;;;;5.97;3.65;;;14.10;99.90;;;-144.05;56.24;56867.94;5023386;28;20045;-80
2023/03/18 09:28:16;;;;;;;9.13;3.50;;;14.00;99.90;;;-144.05;56.84;56882.81;5040651;28;20029;-82
2023/03/18 09:30:42;;;;;;;7.15;3.20;;;13.90;99.90;;;-144.05;57.17;56889.19;5041695;28;20033;-80
2023/03/18 09:33:10;;;;;;;4.97;3.13;;;13.80;99.90;;;-144.05;57.45;56872.19;5024807;28;20057;-79
2023/03/18 09:35:37;;;;;;;7.32;3.40;;;13.70;99.90;;;-144.05;57.64;56861.56;5035078;28;20044;-80
2023/03/18 09:38:03;;;;;;;4.93;3.50;;;13.70;99.90;;;-144.05;57.71;56878.56;5035887;28;20412;-80
2023/03/18 09:40:36;;;;;;;4.60;3.10;;;13.80;99.90;;;-144.05;56.18;56884.94;5026425;28;20033;-80
2023/03/18 09:43:59;;;;;;;6.78;3.80;;;13.90;99.90;;;-144.05;56.07;56891.31;5043458;28;20033;-80
2023/03/18 09:47:17;;;;;;;7.68;3.20;;;14.10;99.90;;;-144.05;55.64;56882.81;4995386;28;20116;-83
2023/03/18 09:50:19;;;;;;;7.55;3.25;;;14.20;99.90;;;-144.05;55.72;56870.06;5000453;28;20106;-80
2023/03/18 09:53:18;;;;;;;4.90;2.92;;;14.20;99.90;;;-144.05;55.70;56857.34;5018868;28;20082;-78
2023/03/18 09:55:54;;;;;;;8.80;3.50;;;14.40;99.90;;;-144.05;53.47;56863.69;5035189;28;20021;-77
2023/03/18 09:58:35;;;;;;;3.67;2.58;;;15.10;99.90;;;-144.05;50.74;56863.69;5017295;28;20085;-78
2023/03/18 10:01:08;;;;;;;5.88;2.63;;;15.70;99.90;;;-144.05;49.42;56870.06;5036780;28;20021;-80
2023/03/18 10:03:47;;;;;;;5.05;2.65;;;16.00;99.90;;;-144.05;48.07;56863.69;5035706;28;20025;-79
2023/03/18 10:06:23;;;;;;;3.72;2.60;;;16.20;99.90;;;-144.05;47.84;56872.19;5035004;28;20030;-77
2023/03/18 10:09:01;;;;;;;4.93;2.40;;;16.00;99.90;;;-144.05;48.72;56863.69;5034950;28;20029;-77
2023/03/18 10:11:41;;;;;;;5.57;2.45;;;15.80;99.90;;;-144.05;49.50;56878.56;5035099;28;20052;-77
2023/03/18 10:14:51;;;;;;;4.22;2.47;;;15.80;99.90;;;-144.05;49.37;56889.19;5034801;28;20040;-79